createdAt,value
2023-04-07T00:01:55.993Z,2.05
2023-04-07T00:04:30.180Z,2.08
2023-04-07T00:07:03.412Z,2.22
2023-04-07T00:09:37.988Z,2.40
2023-04-07T00:12:09.578Z,2.47
2023-04-07T00:14:48.062Z,2.03
2023-04-07T00:20:30.530Z,2.50
2023-04-07T00:23:08.374Z,2.60
2023-04-07T00:25:41.601Z,2.30
2023-04-07T00:28:22.373Z,2.47
2023-04-07T00:31:02.244Z,2.60
2023-04-07T00:33:33.498Z,2.63
2023-04-07T00:36:07.354Z,3.05
2023-04-07T00:38:38.218Z,2.97
2023-04-07T00:41:09.522Z,2.63
2023-04-07T00:43:40.994Z,2.72
2023-04-07T00:46:14.926Z,2.88
2023-04-07T00:48:45.434Z,2.70
2023-04-07T00:51:24.030Z,2.75
2023-04-07T00:53:58.647Z,3.00
2023-04-07T00:56:29.546Z,2.75
2023-04-07T00:59:00.522Z,2.78
2023-04-07T01:01:44.585Z,2.90
2023-04-07T01:04:30.252Z,2.80
2023-04-07T01:07:17.991Z,2.78
2023-04-07T01:09:59.624Z,2.53
2023-04-07T01:12:44.246Z,2.40
2023-04-07T01:15:16.045Z,2.90
2023-04-07T01:17:56.054Z,2.45
2023-04-07T01:20:33.685Z,2.72
2023-04-07T01:23:34.282Z,2.53
2023-04-07T01:26:23.529Z,2.53
2023-04-07T01:29:41.970Z,2.25
2023-04-07T01:32:16.019Z,2.40
2023-04-07T01:34:51.438Z,2.60
2023-04-07T01:37:27.508Z,2.58
2023-04-07T01:39:58.584Z,2.30
2023-04-07T01:42:33.148Z,2.83
2023-04-07T01:45:08.564Z,2.47
2023-04-07T01:47:57.992Z,2.58
2023-04-07T01:50:31.908Z,2.67
2023-04-07T01:53:07.265Z,2.42
2023-04-07T01:55:41.949Z,2.45
2023-04-07T01:58:15.492Z,2.42
2023-04-07T02:00:47.384Z,2.42
2023-04-07T02:03:30.680Z,2.53
2023-04-07T02:06:09.201Z,2.40
2023-04-07T02:08:45.207Z,2.40
2023-04-07T02:11:19.511Z,2.50
2023-04-07T02:13:52.771Z,2.50
2023-04-07T02:16:25.617Z,2.40
2023-04-07T02:18:58.501Z,2.33
2023-04-07T02:21:31.438Z,2.30
2023-04-07T02:24:04.970Z,2.47
2023-04-07T02:26:38.283Z,2.50
2023-04-07T02:29:08.386Z,2.10
2023-04-07T02:31:39.081Z,2.50
2023-04-07T02:34:11.655Z,2.30
2023-04-07T02:36:42.430Z,2.47
2023-04-07T02:39:12.857Z,2.50
2023-04-07T02:41:44.564Z,2.17
2023-04-07T02:44:15.088Z,2.40
2023-04-07T02:46:47.612Z,2.60
2023-04-07T02:49:19.238Z,2.10
2023-04-07T02:51:49.897Z,2.28
2023-04-07T02:54:20.248Z,2.45
2023-04-07T02:56:51.410Z,2.45
2023-04-07T02:59:23.107Z,2.58
2023-04-07T03:01:53.286Z,2.40
2023-04-07T03:04:25.783Z,2.38
2023-04-07T03:06:57.390Z,2.38
2023-04-07T03:09:27.374Z,2.40
2023-04-07T03:11:58.885Z,2.42
2023-04-07T03:14:29.583Z,2.30
2023-04-07T03:17:00.302Z,2.35
2023-04-07T03:19:32.048Z,2.45
2023-04-07T03:22:02.623Z,2.40
2023-04-07T03:24:32.888Z,2.40
2023-04-07T03:27:02.866Z,2.30
2023-04-07T03:29:33.418Z,2.25
2023-04-07T03:32:03.306Z,2.38
2023-04-07T03:34:37.841Z,2.53
2023-04-07T03:37:08.364Z,2.55
2023-04-07T03:39:40.421Z,2.38
2023-04-07T03:42:11.171Z,2.38
2023-04-07T03:44:42.120Z,2.65
2023-04-07T03:47:12.616Z,2.70
2023-04-07T03:49:44.577Z,3.05
2023-04-07T03:52:15.986Z,3.13
2023-04-07T03:54:46.853Z,2.75
2023-04-07T03:57:17.560Z,3.05
2023-04-07T03:59:51.545Z,3.00
2023-04-07T04:02:22.365Z,3.05
2023-04-07T04:04:55.117Z,3.08
2023-04-07T04:07:26.701Z,3.17
2023-04-07T04:09:57.404Z,3.25
2023-04-07T04:12:28.360Z,3.40
2023-04-07T04:14:58.866Z,3.60
2023-04-07T04:17:28.639Z,3.65
2023-04-07T04:20:00.949Z,4.15
2023-04-07T04:22:31.541Z,4.05
2023-04-07T04:25:02.781Z,4.18
2023-04-07T04:27:33.324Z,4.45
2023-04-07T04:30:03.950Z,4.82
2023-04-07T04:32:34.118Z,4.95
2023-04-07T04:35:07.487Z,5.00
2023-04-07T04:37:37.711Z,5.20
2023-04-07T04:40:10.007Z,4.47
2023-04-07T04:42:40.482Z,4.50
2023-04-07T04:45:12.516Z,4.70
2023-04-07T04:47:44.253Z,4.32
2023-04-07T04:50:16.268Z,4.22
2023-04-07T04:52:46.261Z,4.03
2023-04-07T04:55:16.864Z,3.85
2023-04-07T04:57:47.356Z,4.47
2023-04-07T05:00:18.405Z,4.47
2023-04-07T05:02:49.391Z,4.82
2023-04-07T05:05:21.888Z,5.28
2023-04-07T05:07:52.542Z,6.00
2023-04-07T05:10:23.255Z,5.65
2023-04-07T05:12:53.801Z,5.70
2023-04-07T05:15:24.336Z,5.90
2023-04-07T05:17:55.108Z,6.47
2023-04-07T05:20:27.212Z,6.47
2023-04-07T05:22:57.901Z,7.20
2023-04-07T05:25:28.066Z,7.25
2023-04-07T05:27:58.126Z,7.57
2023-04-07T05:30:28.605Z,6.88
2023-04-07T05:32:59.185Z,6.85
2023-04-07T05:35:30.628Z,6.72
2023-04-07T05:38:01.264Z,7.10
2023-04-07T05:40:32.023Z,7.07
2023-04-07T05:43:02.570Z,7.45
2023-04-07T05:45:33.057Z,6.55
2023-04-07T05:48:03.212Z,6.45
2023-04-07T05:50:35.007Z,6.60
2023-04-07T05:53:05.551Z,5.70
2023-04-07T05:55:36.527Z,5.10
2023-04-07T05:58:07.195Z,5.55
2023-04-07T06:00:37.398Z,5.60
2023-04-07T06:03:08.069Z,5.90
2023-04-07T06:05:43.940Z,5.30
2023-04-07T06:08:14.655Z,5.32
2023-04-07T06:10:45.187Z,5.38
2023-04-07T06:13:16.300Z,4.95
2023-04-07T06:15:46.650Z,4.72
2023-04-07T06:18:17.197Z,4.28
2023-04-07T06:20:48.949Z,4.45
2023-04-07T06:23:19.727Z,4.03
2023-04-07T06:25:52.326Z,3.97
2023-04-07T06:28:23.113Z,4.53
2023-04-07T06:30:53.836Z,3.92
2023-04-07T06:33:26.293Z,4.22
2023-04-07T06:35:58.747Z,3.42
2023-04-07T06:38:29.544Z,3.22
2023-04-07T06:41:00.109Z,3.30
2023-04-07T06:43:31.021Z,3.33
2023-04-07T06:46:01.884Z,3.78
2023-04-07T06:48:32.566Z,3.58
2023-04-07T06:51:05.439Z,3.83
2023-04-07T06:53:35.966Z,3.50
2023-04-07T06:56:08.762Z,3.70
2023-04-07T06:58:39.508Z,3.25
2023-04-07T07:01:10.330Z,3.60
2023-04-07T07:03:40.514Z,3.10
2023-04-07T07:06:12.618Z,3.40
2023-04-07T07:08:43.209Z,3.10
2023-04-07T07:11:13.647Z,2.97
2023-04-07T07:13:46.147Z,2.50
2023-04-07T07:16:17.239Z,2.38
2023-04-07T07:18:48.020Z,2.38
2023-04-07T07:21:21.821Z,2.30
2023-04-07T07:23:52.571Z,2.08
2023-04-07T07:26:22.911Z,2.08
2023-04-07T07:28:53.905Z,2.30
2023-04-07T07:31:24.682Z,2.20
2023-04-07T07:33:55.770Z,2.33
2023-04-07T07:36:27.802Z,2.38
2023-04-07T07:38:58.019Z,2.45
2023-04-07T07:41:28.958Z,2.15
2023-04-07T07:43:58.825Z,1.92
2023-04-07T07:46:30.526Z,2.05
2023-04-07T07:49:00.959Z,2.03
2023-04-07T07:51:33.506Z,1.90
2023-04-07T07:54:06.155Z,1.70
2023-04-07T07:56:38.888Z,1.92
2023-04-07T07:59:09.998Z,1.63
2023-04-07T08:01:40.418Z,1.77
2023-04-07T08:04:12.512Z,1.50
2023-04-07T08:06:47.198Z,1.60
2023-04-07T08:09:17.788Z,1.63
2023-04-07T08:11:51.542Z,1.60
2023-04-07T08:14:22.459Z,1.55
2023-04-07T08:16:53.329Z,1.70
2023-04-07T08:19:27.142Z,1.40
2023-04-07T08:22:01.127Z,1.15
2023-04-07T08:24:32.173Z,1.50
2023-04-07T08:27:04.558Z,1.13
2023-04-07T08:29:34.944Z,1.02
2023-04-07T08:32:05.557Z,1.13
2023-04-07T08:34:36.118Z,0.75
2023-04-07T08:37:09.977Z,1.17
2023-04-07T08:39:40.279Z,1.23
2023-04-07T08:42:13.300Z,1.33
2023-04-07T08:44:44.296Z,1.42
2023-04-07T08:47:15.356Z,1.70
2023-04-07T08:49:50.872Z,1.85
2023-04-07T08:52:35.637Z,1.90
2023-04-07T08:55:08.935Z,1.90
2023-04-07T08:57:41.892Z,1.98
2023-04-07T09:00:16.955Z,1.50
2023-04-07T09:02:49.811Z,1.60
2023-04-07T09:05:22.264Z,1.60
2023-04-07T09:07:55.044Z,1.52
2023-04-07T09:10:27.133Z,1.60
2023-04-07T09:12:57.251Z,1.45
2023-04-07T09:15:28.321Z,1.50
2023-04-07T09:18:01.525Z,1.40
2023-04-07T09:21:00.747Z,1.40
2023-04-07T09:23:35.285Z,1.48
2023-04-07T09:26:24.873Z,1.45
2023-04-07T09:28:58.431Z,1.23
2023-04-07T09:31:50.600Z,1.27
2023-04-07T09:34:32.348Z,1.13
2023-04-07T09:37:03.467Z,1.13
2023-04-07T09:39:36.557Z,1.20
2023-04-07T09:42:10.407Z,0.88
2023-04-07T09:44:43.692Z,0.85
2023-04-07T09:47:14.703Z,1.08
2023-04-07T09:49:54.873Z,0.88
2023-04-07T09:52:56.167Z,1.00
2023-04-07T09:55:29.303Z,1.08
2023-04-07T09:57:59.974Z,1.00
2023-04-07T10:00:30.042Z,0.82
2023-04-07T10:03:00.949Z,0.70
2023-04-07T10:05:32.086Z,0.80
2023-04-07T10:08:04.211Z,0.88
2023-04-07T10:10:41.827Z,0.75
2023-04-07T10:13:12.142Z,0.98
2023-04-07T10:15:43.153Z,0.98
2023-04-07T10:18:14.191Z,0.88
2023-04-07T10:20:44.911Z,0.90
2023-04-07T10:23:24.279Z,0.85
2023-04-07T10:26:00.840Z,1.10
2023-04-07T10:28:35.571Z,1.02
2023-04-07T10:31:07.515Z,1.00
2023-04-07T10:33:52.335Z,1.15
2023-04-07T10:36:24.327Z,1.10
2023-04-07T10:39:22.882Z,1.20
2023-04-07T10:41:55.440Z,1.20
2023-04-07T10:44:53.448Z,1.23
2023-04-07T10:47:24.125Z,1.23
2023-04-07T10:50:21.332Z,1.50
2023-04-07T10:53:08.059Z,1.30
2023-04-07T10:55:40.970Z,1.40
2023-04-07T10:58:34.618Z,1.00
2023-04-07T11:01:25.114Z,1.00
2023-04-07T11:04:02.734Z,1.15
2023-04-07T11:06:33.422Z,1.17
2023-04-07T11:09:03.729Z,1.10
2023-04-07T11:11:46.798Z,1.05
2023-04-07T11:14:29.573Z,1.13
2023-04-07T11:17:01.778Z,0.90
2023-04-07T11:19:34.015Z,1.00
2023-04-07T11:24:52.308Z,0.73
2023-04-07T11:27:23.261Z,1.33
2023-04-07T11:29:55.895Z,0.93
2023-04-07T11:32:30.293Z,1.10
2023-04-07T11:35:00.838Z,0.80
2023-04-07T11:37:33.840Z,0.82
2023-04-07T11:40:04.872Z,0.98
2023-04-07T11:42:36.633Z,1.00
2023-04-07T11:45:19.944Z,0.80
2023-04-07T11:47:51.365Z,0.77
2023-04-07T11:50:42.018Z,0.60
2023-04-07T11:53:12.683Z,0.70
2023-04-07T11:55:43.294Z,0.70
2023-04-07T11:58:14.018Z,0.82
2023-04-07T12:00:58.374Z,0.73
2023-04-07T12:03:28.378Z,0.70
2023-04-07T12:05:59.092Z,0.80
2023-04-07T12:08:42.548Z,0.80
2023-04-07T12:11:13.847Z,0.80
2023-04-07T12:13:43.674Z,0.90
2023-04-07T12:16:15.802Z,0.80
2023-04-07T12:18:46.427Z,0.80
2023-04-07T12:21:17.667Z,0.70
2023-04-07T12:23:49.239Z,0.88
2023-04-07T12:26:22.482Z,0.75
2023-04-07T12:28:55.597Z,0.90
2023-04-07T12:31:28.563Z,0.90
2023-04-07T12:33:59.111Z,0.77
2023-04-07T12:36:30.034Z,1.10
2023-04-07T12:39:01.456Z,0.80
2023-04-07T12:41:32.017Z,0.93
2023-04-07T12:44:01.838Z,0.77
2023-04-07T12:46:33.868Z,1.08
2023-04-07T12:49:04.249Z,0.90
2023-04-07T12:51:35.640Z,0.77
2023-04-07T12:54:06.388Z,0.88
2023-04-07T12:56:37.237Z,1.10
2023-04-07T12:59:07.824Z,1.13
2023-04-07T13:01:41.018Z,0.75
2023-04-07T13:04:11.770Z,0.75
2023-04-07T13:06:42.942Z,0.82
2023-04-07T13:09:12.949Z,0.60
2023-04-07T13:11:42.960Z,0.80
2023-04-07T13:14:13.561Z,0.90
2023-04-07T13:16:45.768Z,0.85
2023-04-07T13:19:16.551Z,0.82
2023-04-07T13:21:47.884Z,1.05
2023-04-07T13:24:18.986Z,0.82
2023-04-07T13:26:49.358Z,0.70
2023-04-07T13:29:20.470Z,1.13
2023-04-07T13:31:53.163Z,0.80
2023-04-07T13:34:23.367Z,0.70
2023-04-07T13:36:53.411Z,0.77
2023-04-07T13:39:24.235Z,0.60
2023-04-07T13:41:54.892Z,0.68
2023-04-07T13:44:25.121Z,0.70
2023-04-07T13:46:57.009Z,0.98
2023-04-07T13:49:27.533Z,0.90
2023-04-07T13:51:57.997Z,0.98
2023-04-07T13:54:31.636Z,0.93
2023-04-07T13:57:02.482Z,0.95
2023-04-07T13:59:32.774Z,0.90
2023-04-07T14:02:06.073Z,0.85
2023-04-07T14:04:36.253Z,0.80
2023-04-07T14:07:06.407Z,0.90
2023-04-07T14:09:37.300Z,1.00
2023-04-07T14:12:08.679Z,0.77
2023-04-07T14:14:39.118Z,0.70
2023-04-07T14:17:11.560Z,0.70
2023-04-07T14:19:42.667Z,0.60
2023-04-07T14:22:12.461Z,0.90
2023-04-07T14:24:43.717Z,1.10
2023-04-07T14:27:14.537Z,0.63
2023-04-07T14:29:44.380Z,0.65
2023-04-07T14:32:17.181Z,0.93
2023-04-07T14:34:49.251Z,0.80
2023-04-07T14:37:24.620Z,0.93
2023-04-07T14:40:02.008Z,0.80
2023-04-07T14:42:34.134Z,0.85
2023-04-07T14:45:04.936Z,0.80
2023-04-07T14:47:37.024Z,0.70
2023-04-07T14:50:08.599Z,0.80
2023-04-07T14:52:39.025Z,0.90
2023-04-07T14:55:11.293Z,1.02
2023-04-07T14:57:42.234Z,1.20
2023-04-07T15:00:13.615Z,0.82
2023-04-07T15:02:45.726Z,1.30
2023-04-07T15:05:16.507Z,1.00
2023-04-07T15:07:51.047Z,0.70
2023-04-07T15:10:22.876Z,0.70
2023-04-07T15:12:53.590Z,0.80
2023-04-07T15:15:24.752Z,0.60
2023-04-07T15:17:57.511Z,0.70
2023-04-07T15:20:28.007Z,0.80
2023-04-07T15:23:00.904Z,0.85
2023-04-07T15:25:30.830Z,0.80
2023-04-07T15:28:01.587Z,0.82
2023-04-07T15:30:34.693Z,0.80
2023-04-07T15:33:08.653Z,0.68
2023-04-07T15:35:39.218Z,0.60
2023-04-07T15:38:09.803Z,0.90
2023-04-07T15:40:41.272Z,0.70
2023-04-07T15:43:12.942Z,0.75
2023-04-07T15:45:44.771Z,0.70
2023-04-07T15:48:17.623Z,0.73
2023-04-07T15:50:48.366Z,0.60
2023-04-07T15:53:18.918Z,1.00
2023-04-07T15:55:49.387Z,0.90
2023-04-07T15:58:20.187Z,1.10
2023-04-07T16:00:50.745Z,0.90
2023-04-07T16:03:23.775Z,1.02
2023-04-07T16:05:54.954Z,0.93
2023-04-07T16:08:25.693Z,0.90
2023-04-07T16:10:56.707Z,1.10
2023-04-07T16:13:27.373Z,0.85
2023-04-07T16:15:59.160Z,0.77
2023-04-07T16:18:31.781Z,0.82
2023-04-07T16:21:04.613Z,0.88
2023-04-07T16:23:35.324Z,0.93
2023-04-07T16:26:05.901Z,0.73
2023-04-07T16:28:35.818Z,0.98
2023-04-07T16:31:09.011Z,1.10
2023-04-07T16:33:42.490Z,0.98
2023-04-07T16:36:13.133Z,0.73
2023-04-07T16:38:43.381Z,1.10
2023-04-07T16:41:14.011Z,1.20
2023-04-07T16:43:45.181Z,1.42
2023-04-07T16:46:15.737Z,1.23
2023-04-07T16:48:48.327Z,1.05
2023-04-07T16:51:20.465Z,1.25
2023-04-07T16:53:51.283Z,1.23
2023-04-07T16:56:23.587Z,1.30
2023-04-07T16:58:54.081Z,1.10
2023-04-07T17:01:24.325Z,1.30
2023-04-07T17:03:56.410Z,1.20
2023-04-07T17:06:28.388Z,1.25
2023-04-07T17:08:59.162Z,0.88
2023-04-07T17:11:29.725Z,1.20
2023-04-07T17:14:00.421Z,1.40
2023-04-07T17:16:31.100Z,1.30
2023-04-07T17:19:04.096Z,1.25
2023-04-07T17:21:34.642Z,1.17
2023-04-07T17:24:05.361Z,0.93
2023-04-07T17:26:35.953Z,0.82
2023-04-07T17:29:07.240Z,1.10
2023-04-07T17:31:37.726Z,1.00
2023-04-07T17:34:10.563Z,1.02
2023-04-07T17:36:41.753Z,1.10
2023-04-07T17:39:12.363Z,0.98
2023-04-07T17:41:56.255Z,1.30
2023-04-07T17:44:26.279Z,1.10
2023-04-07T17:46:59.892Z,1.20
2023-04-07T17:49:32.166Z,1.13
2023-04-07T17:52:03.216Z,1.00
2023-04-07T17:54:34.423Z,0.80
2023-04-07T17:57:06.548Z,1.02
2023-04-07T17:59:37.092Z,1.05
2023-04-07T18:02:10.403Z,1.00
2023-04-07T18:04:42.806Z,1.20
2023-04-07T18:07:13.954Z,1.08
2023-04-07T18:09:48.000Z,1.00
2023-04-07T18:12:17.818Z,1.20
2023-04-07T18:14:48.029Z,1.42
2023-04-07T18:17:18.540Z,1.25
2023-04-07T18:19:51.221Z,1.10
2023-04-07T18:22:21.842Z,1.40
2023-04-07T18:24:53.418Z,1.20
2023-04-07T18:27:25.774Z,1.45
2023-04-07T18:29:56.995Z,1.30
2023-04-07T18:32:27.972Z,1.20
2023-04-07T18:34:59.996Z,1.48
2023-04-07T18:37:31.268Z,1.10
2023-04-07T18:40:01.548Z,1.35
2023-04-07T18:42:31.393Z,1.23
2023-04-07T18:45:01.283Z,1.20
2023-04-07T18:47:31.907Z,1.20
2023-04-07T18:50:05.428Z,1.25
2023-04-07T18:52:39.431Z,1.60
2023-04-07T18:55:11.508Z,1.20
2023-04-07T18:57:42.711Z,1.35
2023-04-07T19:00:13.559Z,1.30
2023-04-07T19:02:44.982Z,1.08
2023-04-07T19:05:20.973Z,1.30
2023-04-07T19:07:53.334Z,1.17
2023-04-07T19:10:24.293Z,1.50
2023-04-07T19:12:54.552Z,1.40
2023-04-07T19:15:25.409Z,1.50
2023-04-07T19:17:55.756Z,1.70
2023-04-07T19:20:30.375Z,1.42
2023-04-07T19:23:00.914Z,1.40
2023-04-07T19:25:31.676Z,1.35
2023-04-07T19:28:02.457Z,1.50
2023-04-07T19:30:33.164Z,1.60
2023-04-07T19:33:03.505Z,1.40
2023-04-07T19:35:38.323Z,1.60
2023-04-07T19:38:09.149Z,1.48
2023-04-07T19:40:39.410Z,1.30
2023-04-07T19:43:10.055Z,1.40
2023-04-07T19:45:40.746Z,1.38
2023-04-07T19:48:11.751Z,1.30
2023-04-07T19:50:44.209Z,1.30
2023-04-07T19:53:17.155Z,1.30
2023-04-07T19:55:48.348Z,1.40
2023-04-07T19:58:21.398Z,1.27
2023-04-07T20:00:52.277Z,1.10
2023-04-07T20:03:24.491Z,1.40
2023-04-07T20:05:57.933Z,1.30
2023-04-07T20:08:28.378Z,1.60
2023-04-07T20:10:59.149Z,1.50
2023-04-07T20:13:32.239Z,1.50
2023-04-07T20:16:02.345Z,1.60
2023-04-07T20:18:34.871Z,1.48
2023-04-07T20:21:08.441Z,1.42
2023-04-07T20:23:39.429Z,1.35
2023-04-07T20:26:09.972Z,1.40
2023-04-07T20:28:40.716Z,1.45
2023-04-07T20:31:11.571Z,1.50
2023-04-07T20:33:42.117Z,1.20
2023-04-07T20:36:14.648Z,1.20
2023-04-07T20:38:45.355Z,1.52
2023-04-07T20:41:18.533Z,0.90
2023-04-07T20:43:49.256Z,1.05
2023-04-07T20:46:20.255Z,1.38
2023-04-07T20:48:51.472Z,1.40
2023-04-07T20:51:24.593Z,1.48
2023-04-07T20:53:55.303Z,1.30
2023-04-07T20:56:25.767Z,1.17
2023-04-07T20:58:55.616Z,1.23
2023-04-07T21:01:26.158Z,1.05
2023-04-07T21:03:57.377Z,1.20
2023-04-07T21:06:30.145Z,1.35
2023-04-07T21:09:00.794Z,1.17
2023-04-07T21:11:32.122Z,1.00
2023-04-07T21:14:02.197Z,1.02
2023-04-07T21:16:33.707Z,1.20
2023-04-07T21:19:04.306Z,1.05
2023-04-07T21:21:37.082Z,1.02
2023-04-07T21:24:07.772Z,1.15
2023-04-07T21:26:38.418Z,1.30
2023-04-07T21:29:08.858Z,1.10
2023-04-07T21:31:39.716Z,1.40
2023-04-07T21:34:09.838Z,0.98
2023-04-07T21:36:42.528Z,1.10
2023-04-07T21:39:13.264Z,1.05
2023-04-07T21:41:43.870Z,1.17
2023-04-07T21:44:20.158Z,0.80
2023-04-07T21:46:50.874Z,0.77
2023-04-07T21:49:22.762Z,1.02
2023-04-07T21:51:54.454Z,1.15
2023-04-07T21:54:25.429Z,1.02
2023-04-07T21:56:55.643Z,1.08
2023-04-07T21:59:26.384Z,0.98
2023-04-07T22:01:58.960Z,1.00
2023-04-07T22:04:30.568Z,1.00
2023-04-07T22:07:03.134Z,1.10
2023-04-07T22:09:33.169Z,1.20
2023-04-07T22:12:03.764Z,1.30
2023-04-07T22:14:35.105Z,1.02
2023-04-07T22:17:05.808Z,1.30
2023-04-07T22:19:36.250Z,0.95
2023-04-07T22:22:08.779Z,1.08
2023-04-07T22:24:39.261Z,1.30
2023-04-07T22:27:09.735Z,1.08
2023-04-07T22:29:40.248Z,1.33
2023-04-07T22:32:10.331Z,1.10
2023-04-07T22:34:40.746Z,1.00
2023-04-07T22:37:12.858Z,1.02
2023-04-07T22:39:44.894Z,0.90
2023-04-07T22:42:15.307Z,1.02
2023-04-07T22:44:46.128Z,1.15
2023-04-07T22:47:16.838Z,1.10
2023-04-07T22:49:47.284Z,1.15
2023-04-07T22:52:20.037Z,1.23
2023-04-07T22:54:50.647Z,1.33
2023-04-07T22:57:21.489Z,0.95
2023-04-07T22:59:51.559Z,1.10
2023-04-07T23:02:22.378Z,1.05
2023-04-07T23:04:53.003Z,1.15
2023-04-07T23:07:24.446Z,0.98
2023-04-07T23:09:55.021Z,1.20
2023-04-07T23:12:25.624Z,0.88
2023-04-07T23:14:56.024Z,1.02
2023-04-07T23:17:26.156Z,1.27
2023-04-07T23:19:56.922Z,1.23
2023-04-07T23:22:28.929Z,1.20
2023-04-07T23:24:59.425Z,1.13
2023-04-07T23:27:30.031Z,1.38
2023-04-07T23:30:00.005Z,1.48
2023-04-07T23:32:30.093Z,1.25
2023-04-07T23:35:00.645Z,1.20
2023-04-07T23:37:33.306Z,1.30
2023-04-07T23:40:03.426Z,1.45
2023-04-07T23:42:33.104Z,1.35
2023-04-07T23:45:03.562Z,1.15
2023-04-07T23:47:34.138Z,1.17
2023-04-07T23:50:05.091Z,1.42
2023-04-07T23:52:37.890Z,1.30
2023-04-07T23:55:08.948Z,1.00
2023-04-07T23:57:39.726Z,1.20
